sensor_id;sensor_type;location;lat;lon;timestamp;P1;durP1;ratioP1;P2;durP2;ratioP2
2840;SDS011;53423;49.224;12.074;2022-12-20T00:02:08;32.07;;;23.60;;
2840;SDS011;53423;49.224;12.074;2022-12-20T00:04:37;34.77;;;23.97;;
2840;SDS011;53423;49.224;12.074;2022-12-20T00:07:05;29.83;;;21.60;;
2840;SDS011;53423;49.224;12.074;2022-12-20T00:09:33;30.73;;;21.87;;
2840;SDS011;53423;49.224;12.074;2022-12-20T00:12:02;28.93;;;21.17;;
2840;SDS011;53423;49.224;12.074;2022-12-20T00:14:30;31.17;;;22.07;;
2840;SDS011;53423;49.224;12.074;2022-12-20T00:16:58;29.27;;;21.93;;
2840;SDS011;53423;49.224;12.074;2022-12-20T00:19:26;32.23;;;23.27;;
2840;SDS011;53423;49.224;12.074;2022-12-20T00:21:54;35.10;;;23.20;;
2840;SDS011;53423;49.224;12.074;2022-12-20T00:24:22;30.63;;;22.70;;
2840;SDS011;53423;49.224;12.074;2022-12-20T00:26:51;28.80;;;22.13;;
2840;SDS011;53423;49.224;12.074;2022-12-20T00:29:21;32.37;;;22.57;;
2840;SDS011;53423;49.224;12.074;2022-12-20T00:31:49;31.20;;;21.63;;
2840;SDS011;53423;49.224;12.074;2022-12-20T00:34:17;30.80;;;22.13;;
2840;SDS011;53423;49.224;12.074;2022-12-20T00:36:45;31.00;;;21.70;;
2840;SDS011;53423;49.224;12.074;2022-12-20T00:39:13;29.43;;;21.53;;
2840;SDS011;53423;49.224;12.074;2022-12-20T00:41:41;30.70;;;21.73;;
2840;SDS011;53423;49.224;12.074;2022-12-20T00:44:09;29.90;;;22.47;;
2840;SDS011;53423;49.224;12.074;2022-12-20T00:46:39;28.87;;;21.67;;
2840;SDS011;53423;49.224;12.074;2022-12-20T00:49:07;30.80;;;22.57;;
2840;SDS011;53423;49.224;12.074;2022-12-20T00:51:35;34.47;;;23.93;;
2840;SDS011;53423;49.224;12.074;2022-12-20T00:54:06;35.43;;;25.10;;
2840;SDS011;53423;49.224;12.074;2022-12-20T00:56:36;38.60;;;26.23;;
2840;SDS011;53423;49.224;12.074;2022-12-20T00:59:04;39.30;;;26.80;;
2840;SDS011;53423;49.224;12.074;2022-12-20T01:01:32;35.17;;;24.37;;
2840;SDS011;53423;49.224;12.074;2022-12-20T01:04:02;33.03;;;24.07;;
2840;SDS011;53423;49.224;12.074;2022-12-20T01:06:30;30.77;;;22.43;;
2840;SDS011;53423;49.224;12.074;2022-12-20T01:08:59;35.37;;;23.53;;
2840;SDS011;53423;49.224;12.074;2022-12-20T01:11:28;36.93;;;24.90;;
2840;SDS011;53423;49.224;12.074;2022-12-20T01:13:58;35.30;;;24.87;;
2840;SDS011;53423;49.224;12.074;2022-12-20T01:16:29;32.73;;;23.60;;
2840;SDS011;53423;49.224;12.074;2022-12-20T01:18:58;38.33;;;27.00;;
2840;SDS011;53423;49.224;12.074;2022-12-20T01:21:28;37.60;;;25.23;;
2840;SDS011;53423;49.224;12.074;2022-12-20T01:23:56;33.97;;;24.63;;
2840;SDS011;53423;49.224;12.074;2022-12-20T01:26:26;35.63;;;25.43;;
2840;SDS011;53423;49.224;12.074;2022-12-20T01:28:55;35.30;;;24.83;;
2840;SDS011;53423;49.224;12.074;2022-12-20T01:31:25;32.77;;;22.37;;
2840;SDS011;53423;49.224;12.074;2022-12-20T01:33:54;32.73;;;22.93;;
2840;SDS011;53423;49.224;12.074;2022-12-20T01:36:22;29.53;;;22.13;;
2840;SDS011;53423;49.224;12.074;2022-12-20T01:38:56;30.47;;;21.47;;
2840;SDS011;53423;49.224;12.074;2022-12-20T01:41:25;31.30;;;21.87;;
2840;SDS011;53423;49.224;12.074;2022-12-20T01:43:56;31.17;;;22.60;;
2840;SDS011;53423;49.224;12.074;2022-12-20T01:46:26;29.33;;;22.27;;
2840;SDS011;53423;49.224;12.074;2022-12-20T01:48:56;31.00;;;21.50;;
2840;SDS011;53423;49.224;12.074;2022-12-20T01:51:29;32.73;;;23.53;;
2840;SDS011;53423;49.224;12.074;2022-12-20T01:54:02;29.93;;;22.07;;
2840;SDS011;53423;49.224;12.074;2022-12-20T01:56:34;31.60;;;23.10;;
2840;SDS011;53423;49.224;12.074;2022-12-20T01:59:04;30.30;;;22.57;;
2840;SDS011;53423;49.224;12.074;2022-12-20T02:01:33;31.33;;;21.80;;
2840;SDS011;53423;49.224;12.074;2022-12-20T02:04:01;30.63;;;22.80;;
2840;SDS011;53423;49.224;12.074;2022-12-20T02:06:29;32.40;;;22.90;;
2840;SDS011;53423;49.224;12.074;2022-12-20T02:08:58;32.23;;;22.17;;
2840;SDS011;53423;49.224;12.074;2022-12-20T02:11:41;30.60;;;21.47;;
2840;SDS011;53423;49.224;12.074;2022-12-20T02:14:20;29.47;;;21.70;;
2840;SDS011;53423;49.224;12.074;2022-12-20T02:17:00;29.60;;;22.03;;
2840;SDS011;53423;49.224;12.074;2022-12-20T02:22:53;30.83;;;21.40;;
2840;SDS011;53423;49.224;12.074;2022-12-20T02:25:41;30.67;;;21.33;;
2840;SDS011;53423;49.224;12.074;2022-12-20T02:28:25;35.40;;;22.57;;
2840;SDS011;53423;49.224;12.074;2022-12-20T02:31:07;31.10;;;22.33;;
2840;SDS011;53423;49.224;12.074;2022-12-20T02:33:40;28.93;;;21.47;;
2840;SDS011;53423;49.224;12.074;2022-12-20T02:36:09;30.53;;;21.03;;
2840;SDS011;53423;49.224;12.074;2022-12-20T02:38:37;29.97;;;21.77;;
2840;SDS011;53423;49.224;12.074;2022-12-20T02:41:05;31.17;;;22.60;;
2840;SDS011;53423;49.224;12.074;2022-12-20T02:43:38;29.53;;;22.10;;
2840;SDS011;53423;49.224;12.074;2022-12-20T02:46:30;30.60;;;22.23;;
2840;SDS011;53423;49.224;12.074;2022-12-20T02:49:06;30.17;;;21.27;;
2840;SDS011;53423;49.224;12.074;2022-12-20T02:51:42;32.10;;;22.20;;
2840;SDS011;53423;49.224;12.074;2022-12-20T02:54:13;31.07;;;22.13;;
2840;SDS011;53423;49.224;12.074;2022-12-20T02:56:44;31.87;;;22.10;;
2840;SDS011;53423;49.224;12.074;2022-12-20T02:59:17;30.83;;;22.23;;
2840;SDS011;53423;49.224;12.074;2022-12-20T03:01:50;31.33;;;22.50;;
2840;SDS011;53423;49.224;12.074;2022-12-20T03:04:20;32.90;;;22.60;;
2840;SDS011;53423;49.224;12.074;2022-12-20T03:06:56;31.80;;;23.43;;
2840;SDS011;53423;49.224;12.074;2022-12-20T03:09:26;34.20;;;22.63;;
2840;SDS011;53423;49.224;12.074;2022-12-20T03:11:54;30.87;;;22.40;;
2840;SDS011;53423;49.224;12.074;2022-12-20T03:14:22;33.47;;;22.67;;
2840;SDS011;53423;49.224;12.074;2022-12-20T03:16:52;32.50;;;23.10;;
2840;SDS011;53423;49.224;12.074;2022-12-20T03:19:20;32.03;;;22.27;;
2840;SDS011;53423;49.224;12.074;2022-12-20T03:21:48;33.53;;;22.53;;
2840;SDS011;53423;49.224;12.074;2022-12-20T03:24:17;35.07;;;22.73;;
2840;SDS011;53423;49.224;12.074;2022-12-20T03:26:45;33.37;;;22.60;;
2840;SDS011;53423;49.224;12.074;2022-12-20T03:29:13;33.13;;;21.63;;
2840;SDS011;53423;49.224;12.074;2022-12-20T03:31:41;31.40;;;21.40;;
2840;SDS011;53423;49.224;12.074;2022-12-20T03:34:11;29.87;;;20.87;;
2840;SDS011;53423;49.224;12.074;2022-12-20T03:36:39;30.53;;;21.83;;
2840;SDS011;53423;49.224;12.074;2022-12-20T03:39:07;30.47;;;21.87;;
2840;SDS011;53423;49.224;12.074;2022-12-20T03:41:35;31.63;;;21.90;;
2840;SDS011;53423;49.224;12.074;2022-12-20T03:44:03;31.13;;;22.60;;
2840;SDS011;53423;49.224;12.074;2022-12-20T03:46:31;33.23;;;23.73;;
2840;SDS011;53423;49.224;12.074;2022-12-20T03:48:59;33.53;;;23.23;;
2840;SDS011;53423;49.224;12.074;2022-12-20T03:51:28;34.53;;;24.87;;
2840;SDS011;53423;49.224;12.074;2022-12-20T03:53:56;33.77;;;23.33;;
2840;SDS011;53423;49.224;12.074;2022-12-20T03:56:24;34.43;;;24.40;;
2840;SDS011;53423;49.224;12.074;2022-12-20T03:58:52;33.07;;;23.27;;
2840;SDS011;53423;49.224;12.074;2022-12-20T04:01:21;33.23;;;23.17;;
2840;SDS011;53423;49.224;12.074;2022-12-20T04:03:50;33.13;;;24.10;;
2840;SDS011;53423;49.224;12.074;2022-12-20T04:06:19;35.13;;;23.67;;
2840;SDS011;53423;49.224;12.074;2022-12-20T04:08:49;31.83;;;22.57;;
2840;SDS011;53423;49.224;12.074;2022-12-20T04:11:17;32.30;;;21.90;;
2840;SDS011;53423;49.224;12.074;2022-12-20T04:13:45;32.83;;;23.03;;
2840;SDS011;53423;49.224;12.074;2022-12-20T04:16:15;33.80;;;23.43;;
2840;SDS011;53423;49.224;12.074;2022-12-20T04:18:44;34.20;;;23.87;;
2840;SDS011;53423;49.224;12.074;2022-12-20T04:21:13;31.37;;;23.37;;
2840;SDS011;53423;49.224;12.074;2022-12-20T04:23:41;33.27;;;24.57;;
2840;SDS011;53423;49.224;12.074;2022-12-20T04:26:11;34.13;;;23.50;;
2840;SDS011;53423;49.224;12.074;2022-12-20T04:28:39;32.60;;;22.63;;
2840;SDS011;53423;49.224;12.074;2022-12-20T04:31:07;31.60;;;23.23;;
2840;SDS011;53423;49.224;12.074;2022-12-20T04:33:36;34.43;;;23.37;;
2840;SDS011;53423;49.224;12.074;2022-12-20T04:36:04;32.77;;;23.87;;
2840;SDS011;53423;49.224;12.074;2022-12-20T04:38:33;36.83;;;26.00;;
2840;SDS011;53423;49.224;12.074;2022-12-20T04:41:00;33.73;;;24.83;;
2840;SDS011;53423;49.224;12.074;2022-12-20T04:43:30;33.33;;;25.83;;
2840;SDS011;53423;49.224;12.074;2022-12-20T04:45:58;33.67;;;24.70;;
2840;SDS011;53423;49.224;12.074;2022-12-20T04:48:26;34.07;;;24.43;;
2840;SDS011;53423;49.224;12.074;2022-12-20T04:51:14;37.43;;;24.73;;
2840;SDS011;53423;49.224;12.074;2022-12-20T04:53:43;35.00;;;25.00;;
2840;SDS011;53423;49.224;12.074;2022-12-20T04:56:14;32.80;;;23.40;;
2840;SDS011;53423;49.224;12.074;2022-12-20T04:58:45;39.37;;;25.27;;
2840;SDS011;53423;49.224;12.074;2022-12-20T05:01:14;39.93;;;24.83;;
2840;SDS011;53423;49.224;12.074;2022-12-20T05:03:43;35.60;;;24.80;;
2840;SDS011;53423;49.224;12.074;2022-12-20T05:06:12;31.57;;;22.93;;
2840;SDS011;53423;49.224;12.074;2022-12-20T05:08:40;34.50;;;23.37;;
2840;SDS011;53423;49.224;12.074;2022-12-20T05:11:08;37.93;;;24.73;;
2840;SDS011;53423;49.224;12.074;2022-12-20T05:13:36;33.77;;;24.37;;
2840;SDS011;53423;49.224;12.074;2022-12-20T05:16:06;34.23;;;24.40;;
2840;SDS011;53423;49.224;12.074;2022-12-20T05:18:34;33.90;;;24.40;;
2840;SDS011;53423;49.224;12.074;2022-12-20T05:21:09;35.73;;;24.90;;
2840;SDS011;53423;49.224;12.074;2022-12-20T05:23:55;31.60;;;22.47;;
2840;SDS011;53423;49.224;12.074;2022-12-20T05:26:40;32.57;;;22.53;;
2840;SDS011;53423;49.224;12.074;2022-12-20T05:29:08;33.17;;;23.43;;
2840;SDS011;53423;49.224;12.074;2022-12-20T05:31:37;35.00;;;24.43;;
2840;SDS011;53423;49.224;12.074;2022-12-20T05:34:05;31.80;;;22.97;;
2840;SDS011;53423;49.224;12.074;2022-12-20T05:36:33;30.77;;;22.13;;
2840;SDS011;53423;49.224;12.074;2022-12-20T05:39:01;34.40;;;24.27;;
2840;SDS011;53423;49.224;12.074;2022-12-20T05:41:30;35.27;;;24.70;;
2840;SDS011;53423;49.224;12.074;2022-12-20T05:43:58;35.40;;;24.50;;
2840;SDS011;53423;49.224;12.074;2022-12-20T05:46:27;32.77;;;23.10;;
2840;SDS011;53423;49.224;12.074;2022-12-20T05:48:56;32.57;;;23.23;;
2840;SDS011;53423;49.224;12.074;2022-12-20T05:51:24;34.40;;;23.17;;
2840;SDS011;53423;49.224;12.074;2022-12-20T05:53:52;34.60;;;24.03;;
2840;SDS011;53423;49.224;12.074;2022-12-20T05:56:20;36.17;;;24.77;;
2840;SDS011;53423;49.224;12.074;2022-12-20T05:58:48;36.17;;;25.27;;
2840;SDS011;53423;49.224;12.074;2022-12-20T06:01:16;34.87;;;23.80;;
2840;SDS011;53423;49.224;12.074;2022-12-20T06:03:44;36.80;;;24.67;;
2840;SDS011;53423;49.224;12.074;2022-12-20T06:06:14;35.27;;;25.10;;
2840;SDS011;53423;49.224;12.074;2022-12-20T06:08:42;32.23;;;22.40;;
2840;SDS011;53423;49.224;12.074;2022-12-20T06:11:10;30.43;;;22.13;;
2840;SDS011;53423;49.224;12.074;2022-12-20T06:13:40;32.20;;;22.53;;
2840;SDS011;53423;49.224;12.074;2022-12-20T06:16:09;31.73;;;23.70;;
2840;SDS011;53423;49.224;12.074;2022-12-20T06:18:37;34.03;;;23.83;;
2840;SDS011;53423;49.224;12.074;2022-12-20T06:21:05;31.60;;;22.53;;
2840;SDS011;53423;49.224;12.074;2022-12-20T06:23:34;34.90;;;23.97;;
2840;SDS011;53423;49.224;12.074;2022-12-20T06:26:02;33.10;;;23.43;;
2840;SDS011;53423;49.224;12.074;2022-12-20T06:28:30;32.87;;;23.47;;
2840;SDS011;53423;49.224;12.074;2022-12-20T06:30:58;34.27;;;23.37;;
2840;SDS011;53423;49.224;12.074;2022-12-20T06:33:26;32.93;;;23.63;;
2840;SDS011;53423;49.224;12.074;2022-12-20T06:35:54;36.17;;;24.80;;
2840;SDS011;53423;49.224;12.074;2022-12-20T06:38:22;36.67;;;24.53;;
2840;SDS011;53423;49.224;12.074;2022-12-20T06:40:51;33.90;;;23.93;;
2840;SDS011;53423;49.224;12.074;2022-12-20T06:43:19;34.13;;;22.53;;
2840;SDS011;53423;49.224;12.074;2022-12-20T06:45:48;33.70;;;22.43;;
2840;SDS011;53423;49.224;12.074;2022-12-20T06:48:16;32.23;;;22.70;;
2840;SDS011;53423;49.224;12.074;2022-12-20T06:50:46;33.47;;;22.77;;
2840;SDS011;53423;49.224;12.074;2022-12-20T06:53:21;33.73;;;22.83;;
2840;SDS011;53423;49.224;12.074;2022-12-20T06:55:49;32.23;;;22.87;;
2840;SDS011;53423;49.224;12.074;2022-12-20T06:58:19;32.10;;;22.67;;
2840;SDS011;53423;49.224;12.074;2022-12-20T07:00:47;34.00;;;23.47;;
2840;SDS011;53423;49.224;12.074;2022-12-20T07:03:15;33.03;;;23.63;;
2840;SDS011;53423;49.224;12.074;2022-12-20T07:05:44;35.10;;;23.03;;
2840;SDS011;53423;49.224;12.074;2022-12-20T07:08:17;36.27;;;23.13;;
2840;SDS011;53423;49.224;12.074;2022-12-20T07:10:45;32.93;;;23.33;;
2840;SDS011;53423;49.224;12.074;2022-12-20T07:13:14;37.70;;;23.67;;
2840;SDS011;53423;49.224;12.074;2022-12-20T07:15:44;34.87;;;23.40;;
2840;SDS011;53423;49.224;12.074;2022-12-20T07:18:12;34.77;;;23.33;;
2840;SDS011;53423;49.224;12.074;2022-12-20T07:20:40;32.80;;;23.13;;
2840;SDS011;53423;49.224;12.074;2022-12-20T07:23:08;36.27;;;25.03;;
2840;SDS011;53423;49.224;12.074;2022-12-20T07:25:36;34.50;;;23.03;;
2840;SDS011;53423;49.224;12.074;2022-12-20T07:28:04;32.90;;;22.53;;
2840;SDS011;53423;49.224;12.074;2022-12-20T07:30:32;32.03;;;22.73;;
2840;SDS011;53423;49.224;12.074;2022-12-20T07:33:02;32.77;;;24.10;;
2840;SDS011;53423;49.224;12.074;2022-12-20T07:35:30;33.37;;;23.83;;
2840;SDS011;53423;49.224;12.074;2022-12-20T07:37:58;32.60;;;23.60;;
2840;SDS011;53423;49.224;12.074;2022-12-20T07:40:26;30.67;;;22.17;;
2840;SDS011;53423;49.224;12.074;2022-12-20T07:42:54;33.23;;;23.30;;
2840;SDS011;53423;49.224;12.074;2022-12-20T07:45:22;35.43;;;23.87;;
2840;SDS011;53423;49.224;12.074;2022-12-20T07:47:50;31.47;;;23.07;;
2840;SDS011;53423;49.224;12.074;2022-12-20T07:50:19;31.07;;;22.07;;
2840;SDS011;53423;49.224;12.074;2022-12-20T07:52:47;38.00;;;24.30;;
2840;SDS011;53423;49.224;12.074;2022-12-20T07:55:17;33.00;;;22.50;;
2840;SDS011;53423;49.224;12.074;2022-12-20T07:57:46;36.97;;;24.60;;
2840;SDS011;53423;49.224;12.074;2022-12-20T08:00:18;33.27;;;23.47;;
2840;SDS011;53423;49.224;12.074;2022-12-20T08:02:48;34.83;;;23.17;;
2840;SDS011;53423;49.224;12.074;2022-12-20T08:05:22;34.40;;;23.57;;
2840;SDS011;53423;49.224;12.074;2022-12-20T08:07:51;35.57;;;24.40;;
2840;SDS011;53423;49.224;12.074;2022-12-20T08:10:25;34.80;;;23.60;;
2840;SDS011;53423;49.224;12.074;2022-12-20T08:12:54;34.70;;;24.10;;
2840;SDS011;53423;49.224;12.074;2022-12-20T08:15:22;35.03;;;23.40;;
2840;SDS011;53423;49.224;12.074;2022-12-20T08:17:51;31.93;;;22.40;;
2840;SDS011;53423;49.224;12.074;2022-12-20T08:20:19;33.43;;;23.63;;
2840;SDS011;53423;49.224;12.074;2022-12-20T08:22:48;29.83;;;22.43;;
2840;SDS011;53423;49.224;12.074;2022-12-20T08:25:16;34.57;;;22.40;;
2840;SDS011;53423;49.224;12.074;2022-12-20T08:27:44;33.83;;;22.83;;
2840;SDS011;53423;49.224;12.074;2022-12-20T08:30:12;34.03;;;23.13;;
2840;SDS011;53423;49.224;12.074;2022-12-20T08:32:40;32.63;;;22.90;;
2840;SDS011;53423;49.224;12.074;2022-12-20T08:35:09;33.43;;;23.00;;
2840;SDS011;53423;49.224;12.074;2022-12-20T08:37:38;30.73;;;22.37;;
2840;SDS011;53423;49.224;12.074;2022-12-20T08:40:09;32.13;;;22.53;;
2840;SDS011;53423;49.224;12.074;2022-12-20T08:42:37;31.13;;;21.87;;
2840;SDS011;53423;49.224;12.074;2022-12-20T08:45:06;34.03;;;22.70;;
2840;SDS011;53423;49.224;12.074;2022-12-20T08:47:34;31.40;;;22.07;;
2840;SDS011;53423;49.224;12.074;2022-12-20T08:50:02;34.80;;;23.83;;
2840;SDS011;53423;49.224;12.074;2022-12-20T08:52:30;33.87;;;23.63;;
2840;SDS011;53423;49.224;12.074;2022-12-20T08:54:59;38.60;;;25.13;;
2840;SDS011;53423;49.224;12.074;2022-12-20T08:57:29;34.43;;;24.33;;
2840;SDS011;53423;49.224;12.074;2022-12-20T08:59:57;34.27;;;25.00;;
2840;SDS011;53423;49.224;12.074;2022-12-20T09:02:25;37.33;;;24.97;;
2840;SDS011;53423;49.224;12.074;2022-12-20T09:04:53;37.13;;;26.50;;
2840;SDS011;53423;49.224;12.074;2022-12-20T09:07:22;37.03;;;25.57;;
2840;SDS011;53423;49.224;12.074;2022-12-20T09:09:50;33.30;;;23.07;;
2840;SDS011;53423;49.224;12.074;2022-12-20T09:12:18;34.63;;;23.63;;
2840;SDS011;53423;49.224;12.074;2022-12-20T09:14:47;35.67;;;25.03;;
2840;SDS011;53423;49.224;12.074;2022-12-20T09:17:15;32.50;;;23.23;;
2840;SDS011;53423;49.224;12.074;2022-12-20T09:19:43;34.87;;;23.63;;
2840;SDS011;53423;49.224;12.074;2022-12-20T09:22:11;38.70;;;26.00;;
2840;SDS011;53423;49.224;12.074;2022-12-20T09:24:39;41.30;;;29.60;;
2840;SDS011;53423;49.224;12.074;2022-12-20T09:27:07;43.50;;;30.33;;
2840;SDS011;53423;49.224;12.074;2022-12-20T09:29:34;52.67;;;35.33;;
2840;SDS011;53423;49.224;12.074;2022-12-20T09:32:04;39.30;;;27.17;;
2840;SDS011;53423;49.224;12.074;2022-12-20T09:34:32;42.43;;;28.87;;
2840;SDS011;53423;49.224;12.074;2022-12-20T09:37:00;34.03;;;24.77;;
2840;SDS011;53423;49.224;12.074;2022-12-20T09:39:28;38.17;;;27.17;;
2840;SDS011;53423;49.224;12.074;2022-12-20T09:41:56;39.60;;;26.73;;
2840;SDS011;53423;49.224;12.074;2022-12-20T09:44:26;36.73;;;25.73;;
2840;SDS011;53423;49.224;12.074;2022-12-20T09:46:57;33.73;;;23.50;;
2840;SDS011;53423;49.224;12.074;2022-12-20T09:49:39;34.60;;;24.17;;
2840;SDS011;53423;49.224;12.074;2022-12-20T09:52:26;32.90;;;23.10;;
2840;SDS011;53423;49.224;12.074;2022-12-20T09:55:05;30.73;;;22.60;;
2840;SDS011;53423;49.224;12.074;2022-12-20T09:57:51;30.57;;;21.33;;
2840;SDS011;53423;49.224;12.074;2022-12-20T10:00:29;31.23;;;22.20;;
2840;SDS011;53423;49.224;12.074;2022-12-20T10:03:02;32.80;;;22.40;;
2840;SDS011;53423;49.224;12.074;2022-12-20T10:05:38;32.43;;;21.27;;
2840;SDS011;53423;49.224;12.074;2022-12-20T10:08:21;32.80;;;22.93;;
2840;SDS011;53423;49.224;12.074;2022-12-20T10:11:01;32.20;;;22.10;;
2840;SDS011;53423;49.224;12.074;2022-12-20T10:13:42;35.53;;;23.53;;
2840;SDS011;53423;49.224;12.074;2022-12-20T10:16:28;33.00;;;22.87;;
2840;SDS011;53423;49.224;12.074;2022-12-20T10:19:07;32.57;;;22.50;;
2840;SDS011;53423;49.224;12.074;2022-12-20T10:21:50;32.17;;;21.67;;
2840;SDS011;53423;49.224;12.074;2022-12-20T10:24:24;31.40;;;22.37;;
2840;SDS011;53423;49.224;12.074;2022-12-20T10:26:56;33.53;;;22.37;;
2840;SDS011;53423;49.224;12.074;2022-12-20T10:29:31;32.63;;;22.30;;
2840;SDS011;53423;49.224;12.074;2022-12-20T10:31:59;30.60;;;22.13;;
2840;SDS011;53423;49.224;12.074;2022-12-20T10:34:28;36.97;;;24.10;;
2840;SDS011;53423;49.224;12.074;2022-12-20T10:37:12;34.20;;;23.10;;
2840;SDS011;53423;49.224;12.074;2022-12-20T10:39:42;31.97;;;21.07;;
2840;SDS011;53423;49.224;12.074;2022-12-20T10:42:29;30.50;;;22.20;;
2840;SDS011;53423;49.224;12.074;2022-12-20T10:45:04;29.23;;;21.23;;
2840;SDS011;53423;49.224;12.074;2022-12-20T10:48:02;30.10;;;21.93;;
2840;SDS011;53423;49.224;12.074;2022-12-20T10:50:32;29.60;;;22.57;;
2840;SDS011;53423;49.224;12.074;2022-12-20T10:55:50;29.43;;;20.77;;
2840;SDS011;53423;49.224;12.074;2022-12-20T10:58:29;33.33;;;22.00;;
2840;SDS011;53423;49.224;12.074;2022-12-20T11:01:04;28.20;;;19.90;;
2840;SDS011;53423;49.224;12.074;2022-12-20T11:03:52;25.90;;;19.03;;
2840;SDS011;53423;49.224;12.074;2022-12-20T11:06:23;26.33;;;19.53;;
2840;SDS011;53423;49.224;12.074;2022-12-20T11:08:56;26.80;;;19.13;;
2840;SDS011;53423;49.224;12.074;2022-12-20T11:11:56;25.63;;;19.07;;
2840;SDS011;53423;49.224;12.074;2022-12-20T11:14:26;26.97;;;18.77;;
2840;SDS011;53423;49.224;12.074;2022-12-20T11:17:04;25.63;;;18.80;;
2840;SDS011;53423;49.224;12.074;2022-12-20T11:19:52;25.57;;;18.83;;
2840;SDS011;53423;49.224;12.074;2022-12-20T11:22:37;22.60;;;17.37;;
2840;SDS011;53423;49.224;12.074;2022-12-20T11:25:26;25.07;;;18.80;;
2840;SDS011;53423;49.224;12.074;2022-12-20T11:28:19;24.90;;;17.90;;
2840;SDS011;53423;49.224;12.074;2022-12-20T11:31:03;25.37;;;18.20;;
2840;SDS011;53423;49.224;12.074;2022-12-20T11:33:46;23.90;;;17.90;;
2840;SDS011;53423;49.224;12.074;2022-12-20T11:36:26;25.10;;;18.60;;
2840;SDS011;53423;49.224;12.074;2022-12-20T11:39:04;28.77;;;20.23;;
2840;SDS011;53423;49.224;12.074;2022-12-20T11:41:44;25.20;;;18.90;;
2840;SDS011;53423;49.224;12.074;2022-12-20T11:44:24;28.40;;;19.67;;
2840;SDS011;53423;49.224;12.074;2022-12-20T11:47:23;27.43;;;20.53;;
2840;SDS011;53423;49.224;12.074;2022-12-20T11:50:15;24.57;;;18.67;;
2840;SDS011;53423;49.224;12.074;2022-12-20T11:52:58;26.33;;;18.93;;
2840;SDS011;53423;49.224;12.074;2022-12-20T11:55:30;27.77;;;19.03;;
2840;SDS011;53423;49.224;12.074;2022-12-20T11:58:03;22.70;;;17.90;;
2840;SDS011;53423;49.224;12.074;2022-12-20T12:00:51;27.67;;;19.23;;
2840;SDS011;53423;49.224;12.074;2022-12-20T12:03:25;24.63;;;18.33;;
2840;SDS011;53423;49.224;12.074;2022-12-20T12:06:01;28.50;;;20.93;;
2840;SDS011;53423;49.224;12.074;2022-12-20T12:08:37;25.07;;;19.43;;
2840;SDS011;53423;49.224;12.074;2022-12-20T12:11:11;31.17;;;21.90;;
2840;SDS011;53423;49.224;12.074;2022-12-20T12:14:04;30.33;;;22.67;;
2840;SDS011;53423;49.224;12.074;2022-12-20T12:16:33;26.17;;;20.30;;
2840;SDS011;53423;49.224;12.074;2022-12-20T12:19:04;30.97;;;22.53;;
2840;SDS011;53423;49.224;12.074;2022-12-20T12:21:37;28.97;;;21.83;;
2840;SDS011;53423;49.224;12.074;2022-12-20T12:24:12;35.17;;;24.00;;
2840;SDS011;53423;49.224;12.074;2022-12-20T12:26:46;33.07;;;22.90;;
2840;SDS011;53423;49.224;12.074;2022-12-20T12:29:16;37.67;;;25.67;;
2840;SDS011;53423;49.224;12.074;2022-12-20T12:31:46;36.40;;;24.13;;
2840;SDS011;53423;49.224;12.074;2022-12-20T12:34:26;39.03;;;26.17;;
2840;SDS011;53423;49.224;12.074;2022-12-20T12:37:19;35.50;;;24.43;;
2840;SDS011;53423;49.224;12.074;2022-12-20T12:40:11;41.23;;;25.03;;
2840;SDS011;53423;49.224;12.074;2022-12-20T12:42:57;32.70;;;23.60;;
2840;SDS011;53423;49.224;12.074;2022-12-20T12:45:41;33.20;;;23.37;;
2840;SDS011;53423;49.224;12.074;2022-12-20T12:48:13;38.93;;;24.70;;
2840;SDS011;53423;49.224;12.074;2022-12-20T12:50:46;33.00;;;22.63;;
2840;SDS011;53423;49.224;12.074;2022-12-20T12:53:17;31.10;;;22.63;;
2840;SDS011;53423;49.224;12.074;2022-12-20T12:55:49;34.30;;;24.20;;
2840;SDS011;53423;49.224;12.074;2022-12-20T12:58:38;34.90;;;23.20;;
2840;SDS011;53423;49.224;12.074;2022-12-20T13:01:25;33.33;;;23.97;;
2840;SDS011;53423;49.224;12.074;2022-12-20T13:04:21;32.63;;;24.27;;
2840;SDS011;53423;49.224;12.074;2022-12-20T13:06:54;35.50;;;23.90;;
2840;SDS011;53423;49.224;12.074;2022-12-20T13:09:35;34.03;;;25.30;;
2840;SDS011;53423;49.224;12.074;2022-12-20T13:18:23;34.83;;;22.37;;
2840;SDS011;53423;49.224;12.074;2022-12-20T13:35:53;37.87;;;25.10;;
2840;SDS011;53423;49.224;12.074;2022-12-20T13:41:49;36.13;;;23.40;;
2840;SDS011;53423;49.224;12.074;2022-12-20T13:44:39;32.97;;;22.27;;
2840;SDS011;53423;49.224;12.074;2022-12-20T13:47:19;34.80;;;22.53;;
2840;SDS011;53423;49.224;12.074;2022-12-20T13:49:58;31.90;;;21.43;;
2840;SDS011;53423;49.224;12.074;2022-12-20T13:52:29;34.53;;;22.73;;
2840;SDS011;53423;49.224;12.074;2022-12-20T13:54:59;34.47;;;23.17;;
2840;SDS011;53423;49.224;12.074;2022-12-20T13:57:32;33.67;;;21.60;;
2840;SDS011;53423;49.224;12.074;2022-12-20T14:00:13;35.57;;;23.07;;
2840;SDS011;53423;49.224;12.074;2022-12-20T14:02:42;31.37;;;22.63;;
2840;SDS011;53423;49.224;12.074;2022-12-20T14:05:13;34.20;;;22.57;;
2840;SDS011;53423;49.224;12.074;2022-12-20T14:07:47;36.37;;;23.17;;
2840;SDS011;53423;49.224;12.074;2022-12-20T14:10:22;35.03;;;23.27;;
2840;SDS011;53423;49.224;12.074;2022-12-20T14:12:51;31.37;;;22.00;;
2840;SDS011;53423;49.224;12.074;2022-12-20T14:15:21;33.37;;;21.87;;
2840;SDS011;53423;49.224;12.074;2022-12-20T14:17:50;32.33;;;22.20;;
2840;SDS011;53423;49.224;12.074;2022-12-20T14:20:20;38.43;;;25.00;;
2840;SDS011;53423;49.224;12.074;2022-12-20T14:22:54;36.13;;;24.40;;
2840;SDS011;53423;49.224;12.074;2022-12-20T14:25:33;38.10;;;24.43;;
2840;SDS011;53423;49.224;12.074;2022-12-20T14:28:04;37.07;;;24.43;;
2840;SDS011;53423;49.224;12.074;2022-12-20T14:30:50;35.93;;;23.03;;
2840;SDS011;53423;49.224;12.074;2022-12-20T14:33:18;33.10;;;22.80;;
2840;SDS011;53423;49.224;12.074;2022-12-20T14:35:49;32.70;;;22.57;;
2840;SDS011;53423;49.224;12.074;2022-12-20T14:38:21;34.83;;;22.50;;
2840;SDS011;53423;49.224;12.074;2022-12-20T14:40:50;33.67;;;23.13;;
2840;SDS011;53423;49.224;12.074;2022-12-20T14:43:24;36.17;;;24.37;;
2840;SDS011;53423;49.224;12.074;2022-12-20T14:46:07;35.87;;;24.20;;
2840;SDS011;53423;49.224;12.074;2022-12-20T14:48:43;36.07;;;22.13;;
2840;SDS011;53423;49.224;12.074;2022-12-20T14:51:12;36.37;;;24.27;;
2840;SDS011;53423;49.224;12.074;2022-12-20T14:53:48;32.60;;;21.63;;
2840;SDS011;53423;49.224;12.074;2022-12-20T14:56:19;35.50;;;23.80;;
2840;SDS011;53423;49.224;12.074;2022-12-20T14:59:00;40.33;;;25.37;;
2840;SDS011;53423;49.224;12.074;2022-12-20T15:01:40;35.70;;;24.13;;
2840;SDS011;53423;49.224;12.074;2022-12-20T15:04:20;41.27;;;26.23;;
2840;SDS011;53423;49.224;12.074;2022-12-20T15:06:51;43.27;;;25.27;;
2840;SDS011;53423;49.224;12.074;2022-12-20T15:09:20;38.03;;;24.43;;
2840;SDS011;53423;49.224;12.074;2022-12-20T15:11:48;36.33;;;24.80;;
2840;SDS011;53423;49.224;12.074;2022-12-20T15:17:08;39.73;;;25.03;;
2840;SDS011;53423;49.224;12.074;2022-12-20T15:19:37;37.93;;;24.33;;
2840;SDS011;53423;49.224;12.074;2022-12-20T15:22:10;36.70;;;23.60;;
2840;SDS011;53423;49.224;12.074;2022-12-20T15:24:45;38.10;;;25.33;;